Detroit, Michigan
Traffic Map
Current Weather Conditions
Detroit, Michigan
Clear
Clear
61°
Feels Like: 61°
Wind Chill: 61° Ceiling: Unl
Heat Index: 61° Visibility: 15mi
Dew Point: 48° Wind: 6mph
Humidity: 63% Direction: 330° (NNW)
Pressure: 30.1in Gusts: 0mph
Raw Report DataCYQG 020500Z 33005KT 15SM SKC 16/09 A3010 RMK SLP192 DENSITY ALT 700FT
Traffic Incident Summary
Active as of:
Severity:
Category:
InformationThere was an issue retrieving the traffic information for this location. Please try a different location or try again shortly.
Advertisements
Track Severe Weather on mobile